createdAt,value
2017-08-13T00:01:13.346Z,27.60
2017-08-13T00:03:41.623Z,27.60
2017-08-13T00:06:09.917Z,27.60
2017-08-13T00:08:38.205Z,27.60
2017-08-13T00:11:06.457Z,27.60
2017-08-13T00:13:34.780Z,27.60
2017-08-13T00:16:03.834Z,27.00
2017-08-13T00:18:32.076Z,27.00
2017-08-13T00:21:00.334Z,26.30
2017-08-13T00:23:28.613Z,25.80
2017-08-13T00:25:56.860Z,25.20
2017-08-13T00:28:25.127Z,24.90
2017-08-13T00:30:53.410Z,25.00
2017-08-13T00:33:22.439Z,25.50
2017-08-13T00:35:50.708Z,25.50
2017-08-13T00:38:19.007Z,25.70
2017-08-13T00:40:48.059Z,26.10
2017-08-13T00:43:16.362Z,26.10
2017-08-13T00:45:44.613Z,26.30
2017-08-13T00:48:13.635Z,26.50
2017-08-13T00:50:41.938Z,26.50
2017-08-13T00:53:11.003Z,26.70
2017-08-13T00:55:39.244Z,26.70
2017-08-13T00:58:07.558Z,26.80
2017-08-13T01:00:35.842Z,26.80
2017-08-13T01:03:04.087Z,26.80
2017-08-13T01:05:32.348Z,26.90
2017-08-13T01:08:00.625Z,26.90
2017-08-13T01:10:28.902Z,27.00
2017-08-13T01:12:57.169Z,27.00
2017-08-13T01:15:25.454Z,27.00
2017-08-13T01:17:53.743Z,27.00
2017-08-13T01:20:22.133Z,27.10
2017-08-13T01:22:50.391Z,27.10
2017-08-13T01:25:18.632Z,27.10
2017-08-13T01:27:46.901Z,27.20
2017-08-13T01:30:15.148Z,27.20
2017-08-13T01:32:43.393Z,27.20
2017-08-13T01:35:11.695Z,27.20
2017-08-13T01:37:39.950Z,27.20
2017-08-13T01:40:08.231Z,27.20
2017-08-13T01:42:36.501Z,27.30
2017-08-13T01:45:04.777Z,27.30
2017-08-13T01:47:33.839Z,27.30
2017-08-13T01:50:02.109Z,27.30
2017-08-13T01:52:30.356Z,27.30
2017-08-13T01:54:58.642Z,27.30
2017-08-13T01:57:27.707Z,27.40
2017-08-13T01:59:56.759Z,27.40
2017-08-13T02:02:25.042Z,27.40
2017-08-13T02:04:53.355Z,27.40
2017-08-13T02:07:21.600Z,27.40
2017-08-13T02:09:49.878Z,27.40
2017-08-13T02:12:18.234Z,27.40
2017-08-13T02:14:46.478Z,27.40
2017-08-13T02:17:14.725Z,27.40
2017-08-13T02:19:43.765Z,27.40
2017-08-13T02:22:15.130Z,27.40
2017-08-13T02:24:44.217Z,27.50
2017-08-13T02:27:12.469Z,27.50
2017-08-13T02:29:41.519Z,27.50
2017-08-13T02:32:09.801Z,27.50
2017-08-13T02:34:38.851Z,27.50
2017-08-13T02:37:07.143Z,27.50
2017-08-13T02:39:36.181Z,27.50
2017-08-13T02:42:04.449Z,27.50
2017-08-13T02:44:32.707Z,27.50
2017-08-13T02:47:01.015Z,27.40
2017-08-13T02:49:29.265Z,26.60
2017-08-13T02:51:58.277Z,25.00
2017-08-13T02:54:26.577Z,25.00
2017-08-13T02:56:54.817Z,24.40
2017-08-13T02:59:23.055Z,24.10
2017-08-13T03:01:51.371Z,23.50
2017-08-13T03:04:20.388Z,22.80
2017-08-13T03:06:48.641Z,22.80
2017-08-13T03:09:18.837Z,22.60
2017-08-13T03:11:47.095Z,22.30
2017-08-13T03:14:15.375Z,22.20
2017-08-13T03:16:43.695Z,22.00
2017-08-13T03:19:12.713Z,21.70
2017-08-13T03:21:40.965Z,21.70
2017-08-13T03:24:09.274Z,21.60
2017-08-13T03:26:37.521Z,21.50
2017-08-13T03:29:05.797Z,21.40
2017-08-13T03:31:34.065Z,21.30
2017-08-13T03:34:03.081Z,21.20
2017-08-13T03:36:31.361Z,21.20
2017-08-13T03:38:59.662Z,21.20
2017-08-13T03:41:28.705Z,21.00
2017-08-13T03:43:56.961Z,21.00
2017-08-13T03:46:25.227Z,20.90
2017-08-13T03:48:53.481Z,20.80
2017-08-13T03:51:21.766Z,20.70
2017-08-13T03:53:50.034Z,20.60
2017-08-13T03:56:19.052Z,20.50
2017-08-13T03:58:47.333Z,20.50
2017-08-13T04:01:15.631Z,20.40
2017-08-13T04:03:44.648Z,20.40
2017-08-13T04:06:12.922Z,20.30
2017-08-13T04:08:41.230Z,20.30
2017-08-13T04:11:10.241Z,20.30
2017-08-13T04:13:38.488Z,20.20
2017-08-13T04:16:06.760Z,20.20
2017-08-13T04:18:35.056Z,20.20
2017-08-13T04:21:03.342Z,20.20
2017-08-13T04:23:31.650Z,20.10
2017-08-13T04:25:59.930Z,20.10
2017-08-13T04:28:28.230Z,20.00
2017-08-13T04:30:57.294Z,20.00
2017-08-13T04:33:25.589Z,20.00
2017-08-13T04:35:53.873Z,20.00
2017-08-13T04:38:22.183Z,19.90
2017-08-13T04:40:51.253Z,19.90
2017-08-13T04:43:19.548Z,19.90
2017-08-13T04:45:47.857Z,19.90
2017-08-13T04:48:16.149Z,19.90
2017-08-13T04:50:45.165Z,19.90
2017-08-13T04:53:13.459Z,19.90
2017-08-13T04:55:41.764Z,20.00
2017-08-13T04:58:10.055Z,20.00
2017-08-13T05:00:38.337Z,19.90
2017-08-13T05:03:06.366Z,19.90
2017-08-13T05:05:34.618Z,19.90
2017-08-13T05:08:02.926Z,19.90
2017-08-13T05:10:31.177Z,19.90
2017-08-13T05:12:59.469Z,19.90
2017-08-13T05:15:28.538Z,19.90
2017-08-13T05:17:57.555Z,19.90
2017-08-13T05:20:25.802Z,19.90
2017-08-13T05:22:54.106Z,20.00
2017-08-13T05:25:22.353Z,20.00
2017-08-13T05:27:50.646Z,20.00
2017-08-13T05:30:19.709Z,20.10
2017-08-13T05:32:48.028Z,20.00
2017-08-13T05:35:16.307Z,20.10
2017-08-13T05:37:44.429Z,20.10
2017-08-13T05:40:12.719Z,20.10
2017-08-13T05:42:40.968Z,20.10
2017-08-13T05:45:09.284Z,20.10
2017-08-13T05:47:38.298Z,20.10
2017-08-13T05:50:06.586Z,20.10
2017-08-13T05:52:34.860Z,20.20
2017-08-13T05:55:03.146Z,20.20
2017-08-13T05:57:32.190Z,20.20
2017-08-13T06:00:00.456Z,20.20
2017-08-13T06:02:28.719Z,20.20
2017-08-13T06:04:57.003Z,20.20
2017-08-13T06:07:26.077Z,20.30
2017-08-13T06:09:55.088Z,20.30
2017-08-13T06:12:23.369Z,20.30
2017-08-13T06:14:51.632Z,20.30
2017-08-13T06:17:19.911Z,20.30
2017-08-13T06:19:48.159Z,20.30
2017-08-13T06:22:16.474Z,20.40
2017-08-13T06:24:44.764Z,20.40
2017-08-13T06:27:13.042Z,20.40
2017-08-13T06:29:41.418Z,20.40
2017-08-13T06:32:09.686Z,20.50
2017-08-13T06:34:37.972Z,20.50
2017-08-13T06:37:06.240Z,20.60
2017-08-13T06:39:34.488Z,20.60
2017-08-13T06:42:03.492Z,20.70
2017-08-13T06:44:31.790Z,20.70
2017-08-13T06:47:00.038Z,20.70
2017-08-13T06:49:28.281Z,20.70
2017-08-13T06:51:56.557Z,20.70
2017-08-13T06:54:24.805Z,20.70
2017-08-13T06:56:53.098Z,20.90
2017-08-13T06:59:21.390Z,21.30
2017-08-13T07:01:49.667Z,21.60
2017-08-13T07:04:17.984Z,21.90
2017-08-13T07:06:47.017Z,22.40
2017-08-13T07:09:15.269Z,22.40
2017-08-13T07:11:43.554Z,22.60
2017-08-13T07:14:11.820Z,22.80
2017-08-13T07:16:40.103Z,22.90
2017-08-13T07:19:09.149Z,23.20
2017-08-13T07:21:37.411Z,23.10
2017-08-13T07:24:05.648Z,23.30
2017-08-13T07:26:33.939Z,23.30
2017-08-13T07:29:02.243Z,23.40
2017-08-13T07:31:30.566Z,23.50
2017-08-13T07:33:58.850Z,23.60
2017-08-13T07:36:27.918Z,23.70
2017-08-13T07:38:56.974Z,23.80
2017-08-13T07:41:25.256Z,23.80
2017-08-13T07:43:54.290Z,23.90
2017-08-13T07:46:22.537Z,23.90
2017-08-13T07:48:50.819Z,23.90
2017-08-13T07:51:19.114Z,24.00
2017-08-13T07:53:48.166Z,24.10
2017-08-13T07:56:16.440Z,24.10
2017-08-13T07:58:44.756Z,24.10
2017-08-13T08:01:13.008Z,24.20
2017-08-13T08:03:41.295Z,24.30
2017-08-13T08:06:09.566Z,24.30
2017-08-13T08:08:37.813Z,24.40
2017-08-13T08:11:06.099Z,24.40
2017-08-13T08:13:34.363Z,24.50
2017-08-13T08:16:02.613Z,24.60
2017-08-13T08:18:30.902Z,24.60
2017-08-13T08:20:59.970Z,24.70
2017-08-13T08:23:29.013Z,24.70
2017-08-13T08:25:57.355Z,24.70
2017-08-13T08:28:25.663Z,24.70
2017-08-13T08:30:53.950Z,24.80
2017-08-13T08:33:22.047Z,24.80
2017-08-13T08:35:50.351Z,24.80
2017-08-13T08:38:19.370Z,24.90
2017-08-13T08:40:47.655Z,24.90
2017-08-13T08:43:15.964Z,24.90
2017-08-13T08:45:44.361Z,24.90
2017-08-13T08:48:12.628Z,25.00
2017-08-13T08:50:40.884Z,25.00
2017-08-13T08:53:09.143Z,25.00
2017-08-13T08:55:37.392Z,25.00
2017-08-13T08:58:05.668Z,25.00
2017-08-13T09:00:33.921Z,25.10
2017-08-13T09:03:02.172Z,25.10
2017-08-13T09:05:30.476Z,25.10
2017-08-13T09:07:58.727Z,25.10
2017-08-13T09:10:27.022Z,25.20
2017-08-13T09:12:55.330Z,25.20
2017-08-13T09:15:23.610Z,25.20
2017-08-13T09:17:51.857Z,25.20
2017-08-13T09:20:20.126Z,25.20
2017-08-13T09:22:48.410Z,25.30
2017-08-13T09:25:17.466Z,25.30
2017-08-13T09:27:45.800Z,25.30
2017-08-13T09:30:14.087Z,25.30
2017-08-13T09:32:42.377Z,25.40
2017-08-13T09:35:11.439Z,25.40
2017-08-13T09:37:39.731Z,25.40
2017-08-13T09:40:08.019Z,25.50
2017-08-13T09:42:36.319Z,25.50
2017-08-13T09:45:05.381Z,25.50
2017-08-13T09:47:33.723Z,25.50
2017-08-13T09:50:02.023Z,25.50
2017-08-13T09:52:31.074Z,25.60
2017-08-13T09:54:59.330Z,25.50
2017-08-13T09:57:27.620Z,25.60
2017-08-13T09:59:56.690Z,25.60
2017-08-13T10:02:24.940Z,25.60
2017-08-13T10:04:53.237Z,25.70
2017-08-13T10:07:21.607Z,25.70
2017-08-13T10:09:49.848Z,25.70
2017-08-13T10:12:18.932Z,25.70
2017-08-13T10:14:47.944Z,25.70
2017-08-13T10:17:16.198Z,25.70
2017-08-13T10:19:44.488Z,25.70
2017-08-13T10:22:12.737Z,25.70
2017-08-13T10:24:41.045Z,25.70
2017-08-13T10:27:10.085Z,25.70
2017-08-13T10:29:38.362Z,25.70
2017-08-13T10:32:06.609Z,25.70
2017-08-13T10:34:34.927Z,25.70
2017-08-13T10:37:03.239Z,25.70
2017-08-13T10:39:31.472Z,25.70
2017-08-13T10:41:59.780Z,25.70
2017-08-13T10:44:28.797Z,25.80
2017-08-13T10:46:57.044Z,25.80
2017-08-13T10:49:25.376Z,25.80
2017-08-13T10:51:54.386Z,25.80
2017-08-13T10:54:22.636Z,25.80
2017-08-13T10:56:50.908Z,25.80
2017-08-13T10:59:19.166Z,25.80
2017-08-13T11:01:49.803Z,25.80
2017-08-13T11:04:18.081Z,25.80
2017-08-13T11:06:46.361Z,25.80
2017-08-13T11:09:15.416Z,25.90
2017-08-13T11:11:44.352Z,25.90
2017-08-13T11:14:12.642Z,25.90
2017-08-13T11:16:40.893Z,26.00
2017-08-13T11:19:09.166Z,26.00
2017-08-13T11:21:37.451Z,26.00
2017-08-13T11:24:05.696Z,26.00
2017-08-13T11:26:34.003Z,26.00
2017-08-13T11:29:02.287Z,26.10
2017-08-13T11:31:30.574Z,26.10
2017-08-13T11:33:58.837Z,26.10
2017-08-13T11:36:27.091Z,26.20
2017-08-13T11:38:55.349Z,26.20
2017-08-13T11:41:23.650Z,26.20
2017-08-13T11:43:52.660Z,26.30
2017-08-13T11:46:20.946Z,26.30
2017-08-13T11:48:49.251Z,26.30
2017-08-13T11:51:17.549Z,26.30
2017-08-13T11:53:45.830Z,26.30
2017-08-13T11:56:14.125Z,26.30
2017-08-13T11:58:42.389Z,26.30
2017-08-13T12:01:11.442Z,26.40
2017-08-13T12:03:39.720Z,26.30
2017-08-13T12:06:08.735Z,26.40
2017-08-13T12:08:36.980Z,26.30
2017-08-13T12:11:05.274Z,26.40
2017-08-13T12:13:33.562Z,26.40
2017-08-13T12:16:01.808Z,26.40
2017-08-13T12:18:30.130Z,26.40
2017-08-13T12:20:58.410Z,26.40
2017-08-13T12:23:26.682Z,26.40
2017-08-13T12:25:54.986Z,26.40
2017-08-13T12:28:24.044Z,26.40
2017-08-13T12:30:53.068Z,26.40
2017-08-13T12:33:21.339Z,26.40
2017-08-13T12:35:49.585Z,26.50
2017-08-13T12:38:17.825Z,26.50
2017-08-13T12:40:46.110Z,26.50
2017-08-13T12:43:14.386Z,26.50
2017-08-13T12:45:43.026Z,26.50
2017-08-13T12:48:11.310Z,26.50
2017-08-13T12:50:39.594Z,26.50
2017-08-13T12:53:07.847Z,26.60
2017-08-13T12:55:36.111Z,26.60
2017-08-13T12:58:04.352Z,26.60
2017-08-13T13:00:32.605Z,26.60
2017-08-13T13:03:00.908Z,26.60
2017-08-13T13:05:29.185Z,26.60
2017-08-13T13:07:58.201Z,26.60
2017-08-13T13:10:26.506Z,26.60
2017-08-13T13:12:55.512Z,26.70
2017-08-13T13:15:23.785Z,26.60
2017-08-13T13:17:52.095Z,26.70
2017-08-13T13:20:20.336Z,26.70
2017-08-13T13:22:48.631Z,26.70
2017-08-13T13:25:17.706Z,26.70
2017-08-13T13:27:46.729Z,26.70
2017-08-13T13:30:14.985Z,26.70
2017-08-13T13:32:43.102Z,26.70
2017-08-13T13:35:12.117Z,26.70
2017-08-13T13:37:40.370Z,26.70
2017-08-13T13:40:08.658Z,26.80
2017-08-13T13:42:36.903Z,26.80
2017-08-13T13:45:05.184Z,26.80
2017-08-13T13:47:33.498Z,26.80
2017-08-13T13:50:01.762Z,26.80
2017-08-13T13:52:30.004Z,26.80
2017-08-13T13:54:59.052Z,26.80
2017-08-13T13:57:27.297Z,26.80
2017-08-13T13:59:55.585Z,26.80
2017-08-13T14:02:23.877Z,26.80
2017-08-13T14:04:52.174Z,26.80
2017-08-13T14:07:20.426Z,26.80
2017-08-13T14:09:48.722Z,26.80
2017-08-13T14:12:16.973Z,26.80
2017-08-13T14:14:45.221Z,26.80
2017-08-13T14:17:13.534Z,26.80
2017-08-13T14:19:41.814Z,26.80
2017-08-13T14:22:10.104Z,26.80
2017-08-13T14:24:38.397Z,26.80
2017-08-13T14:27:07.450Z,26.90
2017-08-13T14:29:35.702Z,26.80
2017-08-13T14:32:03.964Z,26.90
2017-08-13T14:34:32.250Z,26.90
2017-08-13T14:37:01.284Z,26.90
2017-08-13T14:39:29.599Z,26.90
2017-08-13T14:41:57.887Z,26.90
2017-08-13T14:44:26.222Z,26.90
2017-08-13T14:46:54.530Z,26.90
2017-08-13T14:49:22.822Z,26.90
2017-08-13T14:51:51.109Z,26.90
2017-08-13T14:54:19.419Z,26.90
2017-08-13T14:56:47.697Z,27.00
2017-08-13T14:59:15.949Z,27.00
2017-08-13T15:01:44.219Z,27.00
2017-08-13T15:04:12.501Z,27.00
2017-08-13T15:06:41.367Z,27.00
2017-08-13T15:09:10.435Z,27.00
2017-08-13T15:11:38.727Z,27.00
2017-08-13T15:14:06.973Z,27.00
2017-08-13T15:16:36.027Z,27.00
2017-08-13T15:19:04.268Z,27.00
2017-08-13T15:21:32.546Z,27.00
2017-08-13T15:24:00.812Z,27.10
2017-08-13T15:26:29.061Z,27.10
2017-08-13T15:28:57.313Z,27.10
2017-08-13T15:31:25.605Z,27.10
2017-08-13T15:33:54.621Z,27.10
2017-08-13T15:36:22.873Z,27.10
2017-08-13T15:38:51.137Z,27.10
2017-08-13T15:41:19.384Z,27.10
2017-08-13T15:43:47.764Z,27.10
2017-08-13T15:46:16.111Z,27.20
2017-08-13T15:48:44.394Z,27.20
2017-08-13T15:51:12.682Z,27.20
2017-08-13T15:53:40.949Z,27.20
2017-08-13T15:56:09.241Z,27.20
2017-08-13T15:58:37.535Z,27.20
2017-08-13T16:01:05.830Z,27.20
2017-08-13T16:03:34.084Z,27.20
2017-08-13T16:06:02.359Z,27.20
2017-08-13T16:08:31.426Z,27.20
2017-08-13T16:10:59.672Z,27.20
2017-08-13T16:13:27.959Z,27.20
2017-08-13T16:15:57.029Z,27.20
2017-08-13T16:18:25.353Z,27.30
2017-08-13T16:20:53.597Z,27.30
2017-08-13T16:23:21.871Z,27.30
2017-08-13T16:25:50.150Z,27.30
2017-08-13T16:28:18.405Z,27.30
2017-08-13T16:30:46.678Z,27.30
2017-08-13T16:33:14.967Z,27.30
2017-08-13T16:35:44.014Z,27.30
2017-08-13T16:38:12.100Z,27.30
2017-08-13T16:40:40.353Z,27.30
2017-08-13T16:43:09.420Z,27.30
2017-08-13T16:45:37.677Z,27.30
2017-08-13T16:48:05.924Z,27.30
2017-08-13T16:50:34.201Z,27.30
2017-08-13T16:53:02.539Z,27.30
2017-08-13T16:55:30.826Z,27.30
2017-08-13T16:57:59.869Z,27.30
2017-08-13T17:00:28.161Z,27.30
2017-08-13T17:02:56.464Z,27.30
2017-08-13T17:05:24.753Z,27.40
2017-08-13T17:07:53.051Z,27.40
2017-08-13T17:10:22.065Z,27.40
2017-08-13T17:12:50.345Z,27.40
2017-08-13T17:15:18.662Z,27.40
2017-08-13T17:17:46.903Z,27.40
2017-08-13T17:20:15.966Z,27.40
2017-08-13T17:22:44.269Z,27.40
2017-08-13T17:25:12.552Z,27.40
2017-08-13T17:27:40.848Z,27.40
2017-08-13T17:30:09.121Z,27.40
2017-08-13T17:32:38.172Z,27.40
2017-08-13T17:35:06.421Z,27.40
2017-08-13T17:37:34.704Z,27.40
2017-08-13T17:40:02.978Z,27.40
2017-08-13T17:42:32.032Z,27.40
2017-08-13T17:45:00.301Z,27.40
2017-08-13T17:47:28.545Z,27.40
2017-08-13T17:49:56.791Z,27.50
2017-08-13T17:52:25.074Z,27.50
2017-08-13T17:54:53.355Z,27.50
2017-08-13T17:57:22.373Z,27.50
2017-08-13T17:59:50.656Z,27.50
2017-08-13T18:02:18.910Z,27.50
2017-08-13T18:04:47.173Z,27.50
2017-08-13T18:07:15.446Z,27.50
2017-08-13T18:09:43.681Z,27.50
2017-08-13T18:12:11.967Z,27.50
2017-08-13T18:14:40.271Z,27.50
2017-08-13T18:17:09.277Z,27.50
2017-08-13T18:19:37.516Z,27.50
2017-08-13T18:22:05.788Z,27.50
2017-08-13T18:24:34.033Z,27.50
2017-08-13T18:27:02.281Z,27.60
2017-08-13T18:29:31.354Z,27.60
2017-08-13T18:32:00.363Z,27.60
2017-08-13T18:34:28.617Z,27.50
2017-08-13T18:36:56.917Z,27.50
2017-08-13T18:39:25.198Z,27.60
2017-08-13T18:41:54.254Z,27.60
2017-08-13T18:44:22.536Z,27.50
2017-08-13T18:46:50.813Z,27.60
2017-08-13T18:49:19.833Z,27.60
2017-08-13T18:51:48.089Z,27.60
2017-08-13T18:54:16.376Z,27.60
2017-08-13T18:56:44.664Z,27.60
2017-08-13T18:59:13.694Z,27.60
2017-08-13T19:01:41.985Z,27.60
2017-08-13T19:04:10.275Z,27.60
2017-08-13T19:06:38.553Z,27.60
2017-08-13T19:09:06.834Z,27.60
2017-08-13T19:11:35.093Z,27.60
2017-08-13T19:14:03.356Z,27.70
2017-08-13T19:16:31.639Z,27.60
2017-08-13T19:18:59.926Z,27.30
2017-08-13T19:21:28.223Z,27.00
2017-08-13T19:23:56.477Z,27.00
2017-08-13T19:26:24.758Z,27.00
2017-08-13T19:28:53.071Z,27.10
2017-08-13T19:31:21.317Z,27.10
2017-08-13T19:33:49.589Z,27.20
2017-08-13T19:36:17.881Z,27.30
2017-08-13T19:38:46.143Z,27.30
2017-08-13T19:41:14.386Z,27.40
2017-08-13T19:43:42.683Z,27.40
2017-08-13T19:46:10.941Z,27.40
2017-08-13T19:48:39.219Z,27.40
2017-08-13T19:51:08.256Z,27.40
2017-08-13T19:53:36.497Z,27.50
2017-08-13T19:56:04.782Z,27.50
2017-08-13T19:58:33.056Z,27.50
2017-08-13T20:01:01.304Z,27.50
2017-08-13T20:03:29.563Z,27.50
2017-08-13T20:05:57.858Z,27.50
2017-08-13T20:08:26.868Z,27.60
2017-08-13T20:10:55.115Z,27.60
2017-08-13T20:13:23.468Z,27.60
2017-08-13T20:15:51.717Z,27.60
2017-08-13T20:18:19.969Z,27.60
2017-08-13T20:20:48.996Z,27.60
2017-08-13T20:23:17.288Z,27.60
2017-08-13T20:25:45.588Z,27.60
2017-08-13T20:28:13.885Z,27.60
2017-08-13T20:30:42.167Z,27.60
2017-08-13T20:33:10.414Z,27.60
2017-08-13T20:35:38.694Z,27.60
2017-08-13T20:38:06.971Z,27.60
2017-08-13T20:40:36.018Z,27.70
2017-08-13T20:43:04.322Z,27.70
2017-08-13T20:45:32.573Z,27.70
2017-08-13T20:48:00.874Z,27.70
2017-08-13T20:50:29.178Z,27.70
2017-08-13T20:52:58.226Z,27.70
2017-08-13T20:55:26.512Z,27.70
2017-08-13T20:57:55.552Z,27.70
2017-08-13T21:00:23.797Z,27.70
2017-08-13T21:02:52.045Z,27.70
2017-08-13T21:05:20.344Z,27.70
2017-08-13T21:07:48.650Z,27.70
2017-08-13T21:10:16.901Z,27.70
2017-08-13T21:12:45.933Z,27.70
2017-08-13T21:15:14.217Z,27.70
2017-08-13T21:17:42.513Z,27.80
2017-08-13T21:20:10.828Z,27.80
2017-08-13T21:22:39.106Z,27.80
2017-08-13T21:25:07.349Z,27.80
2017-08-13T21:27:35.650Z,27.80
2017-08-13T21:30:04.695Z,27.80
2017-08-13T21:32:32.945Z,27.80
2017-08-13T21:35:01.247Z,27.80
2017-08-13T21:37:29.505Z,27.80
2017-08-13T21:39:57.785Z,27.80
2017-08-13T21:42:26.063Z,27.80
2017-08-13T21:44:54.304Z,27.80
2017-08-13T21:47:22.548Z,27.80
2017-08-13T21:49:50.854Z,27.80
2017-08-13T21:52:19.158Z,27.80
2017-08-13T21:54:48.206Z,26.80
2017-08-13T21:57:16.511Z,26.80
2017-08-13T21:59:44.767Z,26.10
2017-08-13T22:02:13.772Z,25.30
2017-08-13T22:04:42.057Z,25.30
2017-08-13T22:07:10.306Z,24.90
2017-08-13T22:09:38.585Z,24.60
2017-08-13T22:12:06.894Z,24.20
2017-08-13T22:14:35.180Z,23.90
2017-08-13T22:17:03.509Z,23.80
2017-08-13T22:19:31.776Z,23.60
2017-08-13T22:22:00.057Z,23.60
2017-08-13T22:24:28.347Z,23.50
2017-08-13T22:26:56.681Z,23.40
2017-08-13T22:29:24.958Z,23.60
2017-08-13T22:31:53.213Z,23.90
2017-08-13T22:34:21.481Z,24.30
2017-08-13T22:36:49.822Z,24.60
2017-08-13T22:39:18.117Z,25.00
2017-08-13T22:41:46.414Z,25.20
2017-08-13T22:44:14.694Z,25.40
2017-08-13T22:46:42.974Z,25.60
2017-08-13T22:49:11.290Z,25.70
2017-08-13T22:51:39.587Z,25.90
2017-08-13T22:54:07.846Z,26.00
2017-08-13T22:56:36.096Z,26.00
2017-08-13T22:59:04.364Z,26.10
2017-08-13T23:01:32.612Z,26.20
2017-08-13T23:04:00.909Z,26.20
2017-08-13T23:06:29.194Z,26.30
2017-08-13T23:08:58.238Z,26.40
2017-08-13T23:11:26.565Z,26.40
2017-08-13T23:13:54.946Z,26.40
2017-08-13T23:16:23.193Z,26.50
2017-08-13T23:18:51.546Z,26.50
2017-08-13T23:21:19.834Z,26.60
2017-08-13T23:23:47.906Z,26.60
2017-08-13T23:26:16.165Z,26.60
2017-08-13T23:28:44.450Z,26.60
2017-08-13T23:31:13.494Z,26.70
2017-08-13T23:33:41.789Z,26.70
2017-08-13T23:36:10.829Z,26.70
2017-08-13T23:38:39.119Z,26.70
2017-08-13T23:41:08.144Z,26.80
2017-08-13T23:43:36.430Z,26.80
2017-08-13T23:46:04.680Z,26.80
2017-08-13T23:48:32.949Z,26.80
2017-08-13T23:51:01.235Z,26.80
2017-08-13T23:53:30.295Z,26.80
2017-08-13T23:55:58.604Z,26.80
2017-08-13T23:58:26.905Z,26.80
